sensor_id;sensor_type;location;lat;lon;timestamp;P1;durP1;ratioP1;P2;durP2;ratioP2
58974;SDS011;44751;52.236;5.178;2023-08-24T00:00:49;5.78;;;2.80;;
58974;SDS011;44751;52.236;5.178;2023-08-24T00:03:19;5.25;;;2.75;;
58974;SDS011;44751;52.236;5.178;2023-08-24T00:05:47;4.57;;;3.10;;
58974;SDS011;44751;52.236;5.178;2023-08-24T00:08:13;7.07;;;3.90;;
58974;SDS011;44751;52.236;5.178;2023-08-24T00:10:44;7.88;;;3.80;;
58974;SDS011;44751;52.236;5.178;2023-08-24T00:15:41;6.60;;;4.20;;
58974;SDS011;44751;52.236;5.178;2023-08-24T00:18:08;7.25;;;3.70;;
58974;SDS011;44751;52.236;5.178;2023-08-24T00:20:34;7.75;;;4.03;;
58974;SDS011;44751;52.236;5.178;2023-08-24T00:23:07;5.50;;;3.60;;
58974;SDS011;44751;52.236;5.178;2023-08-24T00:25:33;6.35;;;4.03;;
58974;SDS011;44751;52.236;5.178;2023-08-24T00:28:00;7.05;;;4.53;;
58974;SDS011;44751;52.236;5.178;2023-08-24T00:30:27;9.85;;;4.40;;
58974;SDS011;44751;52.236;5.178;2023-08-24T00:32:54;7.55;;;4.22;;
58974;SDS011;44751;52.236;5.178;2023-08-24T00:35:28;6.00;;;4.10;;
58974;SDS011;44751;52.236;5.178;2023-08-24T00:37:55;5.40;;;4.38;;
58974;SDS011;44751;52.236;5.178;2023-08-24T00:40:22;7.63;;;4.63;;
58974;SDS011;44751;52.236;5.178;2023-08-24T00:42:50;6.32;;;4.32;;
58974;SDS011;44751;52.236;5.178;2023-08-24T00:45:26;9.70;;;4.50;;
58974;SDS011;44751;52.236;5.178;2023-08-24T00:47:53;8.50;;;4.90;;
58974;SDS011;44751;52.236;5.178;2023-08-24T00:50:20;8.23;;;4.57;;
58974;SDS011;44751;52.236;5.178;2023-08-24T00:52:47;7.97;;;4.07;;
58974;SDS011;44751;52.236;5.178;2023-08-24T00:55:21;5.88;;;4.30;;
58974;SDS011;44751;52.236;5.178;2023-08-24T00:57:48;6.22;;;4.13;;
58974;SDS011;44751;52.236;5.178;2023-08-24T01:00:17;6.47;;;4.78;;
58974;SDS011;44751;52.236;5.178;2023-08-24T01:02:44;8.50;;;4.80;;
58974;SDS011;44751;52.236;5.178;2023-08-24T01:05:10;8.50;;;4.68;;
58974;SDS011;44751;52.236;5.178;2023-08-24T01:07:40;6.00;;;5.10;;
58974;SDS011;44751;52.236;5.178;2023-08-24T01:10:08;6.28;;;4.30;;
58974;SDS011;44751;52.236;5.178;2023-08-24T01:15:52;8.52;;;4.93;;
58974;SDS011;44751;52.236;5.178;2023-08-24T01:18:37;7.25;;;4.50;;
58974;SDS011;44751;52.236;5.178;2023-08-24T01:21:08;9.13;;;4.70;;
58974;SDS011;44751;52.236;5.178;2023-08-24T01:26:16;9.10;;;5.45;;
58974;SDS011;44751;52.236;5.178;2023-08-24T01:28:44;7.40;;;4.78;;
58974;SDS011;44751;52.236;5.178;2023-08-24T01:31:15;6.10;;;4.57;;
58974;SDS011;44751;52.236;5.178;2023-08-24T01:33:44;7.38;;;5.25;;
58974;SDS011;44751;52.236;5.178;2023-08-24T01:36:12;9.77;;;5.28;;
58974;SDS011;44751;52.236;5.178;2023-08-24T01:38:44;8.45;;;5.10;;
58974;SDS011;44751;52.236;5.178;2023-08-24T01:43:49;8.77;;;5.75;;
58974;SDS011;44751;52.236;5.178;2023-08-24T01:46:25;8.27;;;5.50;;
58974;SDS011;44751;52.236;5.178;2023-08-24T01:48:53;7.18;;;5.47;;
58974;SDS011;44751;52.236;5.178;2023-08-24T01:51:21;8.25;;;5.30;;
58974;SDS011;44751;52.236;5.178;2023-08-24T01:53:52;6.43;;;5.25;;
58974;SDS011;44751;52.236;5.178;2023-08-24T01:58:50;8.38;;;6.22;;
58974;SDS011;44751;52.236;5.178;2023-08-24T02:01:16;9.45;;;6.90;;
58974;SDS011;44751;52.236;5.178;2023-08-24T02:03:43;10.82;;;7.07;;
58974;SDS011;44751;52.236;5.178;2023-08-24T02:06:15;11.13;;;7.25;;
58974;SDS011;44751;52.236;5.178;2023-08-24T02:08:42;9.98;;;6.65;;
58974;SDS011;44751;52.236;5.178;2023-08-24T02:11:09;10.70;;;7.88;;
58974;SDS011;44751;52.236;5.178;2023-08-24T02:13:36;12.48;;;7.38;;
58974;SDS011;44751;52.236;5.178;2023-08-24T02:16:08;10.10;;;7.70;;
58974;SDS011;44751;52.236;5.178;2023-08-24T02:18:35;9.87;;;7.20;;
58974;SDS011;44751;52.236;5.178;2023-08-24T02:21:06;10.63;;;7.22;;
58974;SDS011;44751;52.236;5.178;2023-08-24T02:23:35;9.85;;;7.28;;
58974;SDS011;44751;52.236;5.178;2023-08-24T02:26:02;10.60;;;7.57;;
58974;SDS011;44751;52.236;5.178;2023-08-24T02:28:34;10.68;;;7.13;;
58974;SDS011;44751;52.236;5.178;2023-08-24T02:31:03;8.57;;;6.90;;
58974;SDS011;44751;52.236;5.178;2023-08-24T02:33:31;9.15;;;6.90;;
58974;SDS011;44751;52.236;5.178;2023-08-24T02:35:57;9.98;;;7.00;;
58974;SDS011;44751;52.236;5.178;2023-08-24T02:38:27;8.90;;;7.15;;
58974;SDS011;44751;52.236;5.178;2023-08-24T02:41:00;10.73;;;7.43;;
58974;SDS011;44751;52.236;5.178;2023-08-24T02:43:28;9.05;;;7.30;;
58974;SDS011;44751;52.236;5.178;2023-08-24T02:45:59;10.20;;;7.65;;
58974;SDS011;44751;52.236;5.178;2023-08-24T02:48:26;13.35;;;7.90;;
58974;SDS011;44751;52.236;5.178;2023-08-24T02:50:53;9.55;;;7.35;;
58974;SDS011;44751;52.236;5.178;2023-08-24T02:53:19;11.50;;;6.82;;
58974;SDS011;44751;52.236;5.178;2023-08-24T02:55:46;9.57;;;6.95;;
58974;SDS011;44751;52.236;5.178;2023-08-24T02:58:13;13.57;;;7.50;;
58974;SDS011;44751;52.236;5.178;2023-08-24T03:00:39;10.20;;;7.53;;
58974;SDS011;44751;52.236;5.178;2023-08-24T03:03:09;10.02;;;6.90;;
58974;SDS011;44751;52.236;5.178;2023-08-24T03:05:35;10.20;;;7.30;;
58974;SDS011;44751;52.236;5.178;2023-08-24T03:08:01;12.13;;;7.00;;
58974;SDS011;44751;52.236;5.178;2023-08-24T03:10:29;8.73;;;6.65;;
58974;SDS011;44751;52.236;5.178;2023-08-24T03:12:56;8.95;;;7.38;;
58974;SDS011;44751;52.236;5.178;2023-08-24T03:15:22;10.80;;;7.25;;
58974;SDS011;44751;52.236;5.178;2023-08-24T03:17:50;11.57;;;7.70;;
58974;SDS011;44751;52.236;5.178;2023-08-24T03:20:18;9.25;;;6.70;;
58974;SDS011;44751;52.236;5.178;2023-08-24T03:22:45;12.38;;;7.03;;
58974;SDS011;44751;52.236;5.178;2023-08-24T03:25:14;11.10;;;7.60;;
58974;SDS011;44751;52.236;5.178;2023-08-24T03:27:41;9.85;;;7.20;;
58974;SDS011;44751;52.236;5.178;2023-08-24T03:30:09;9.70;;;7.32;;
58974;SDS011;44751;52.236;5.178;2023-08-24T03:32:36;10.90;;;7.70;;
58974;SDS011;44751;52.236;5.178;2023-08-24T03:35:02;9.95;;;7.90;;
58974;SDS011;44751;52.236;5.178;2023-08-24T03:37:31;10.45;;;7.57;;
58974;SDS011;44751;52.236;5.178;2023-08-24T03:40:02;10.63;;;7.32;;
58974;SDS011;44751;52.236;5.178;2023-08-24T03:42:31;12.98;;;8.32;;
58974;SDS011;44751;52.236;5.178;2023-08-24T03:44:59;10.32;;;7.13;;
58974;SDS011;44751;52.236;5.178;2023-08-24T03:47:25;10.63;;;7.82;;
58974;SDS011;44751;52.236;5.178;2023-08-24T03:50:02;11.40;;;7.68;;
58974;SDS011;44751;52.236;5.178;2023-08-24T03:52:29;12.32;;;8.30;;
58974;SDS011;44751;52.236;5.178;2023-08-24T03:54:56;14.05;;;8.13;;
58974;SDS011;44751;52.236;5.178;2023-08-24T03:57:23;11.10;;;7.47;;
58974;SDS011;44751;52.236;5.178;2023-08-24T04:00:00;10.82;;;8.02;;
58974;SDS011;44751;52.236;5.178;2023-08-24T04:02:29;10.57;;;7.65;;
58974;SDS011;44751;52.236;5.178;2023-08-24T04:04:55;12.77;;;7.93;;
58974;SDS011;44751;52.236;5.178;2023-08-24T04:07:22;12.45;;;7.65;;
58974;SDS011;44751;52.236;5.178;2023-08-24T04:09:52;12.55;;;7.55;;
58974;SDS011;44751;52.236;5.178;2023-08-24T04:12:19;9.88;;;7.90;;
58974;SDS011;44751;52.236;5.178;2023-08-24T04:14:47;11.52;;;7.45;;
58974;SDS011;44751;52.236;5.178;2023-08-24T04:17:14;9.93;;;8.40;;
58974;SDS011;44751;52.236;5.178;2023-08-24T04:19:48;10.80;;;7.45;;
58974;SDS011;44751;52.236;5.178;2023-08-24T04:22:15;12.75;;;8.05;;
58974;SDS011;44751;52.236;5.178;2023-08-24T04:24:41;11.65;;;7.70;;
58974;SDS011;44751;52.236;5.178;2023-08-24T04:27:08;11.05;;;7.28;;
58974;SDS011;44751;52.236;5.178;2023-08-24T04:29:34;8.77;;;7.50;;
58974;SDS011;44751;52.236;5.178;2023-08-24T04:32:01;12.63;;;8.38;;
58974;SDS011;44751;52.236;5.178;2023-08-24T04:34:29;14.75;;;8.52;;
58974;SDS011;44751;52.236;5.178;2023-08-24T04:36:58;10.00;;;7.78;;
58974;SDS011;44751;52.236;5.178;2023-08-24T04:39:26;10.27;;;7.68;;
58974;SDS011;44751;52.236;5.178;2023-08-24T04:41:54;11.15;;;7.85;;
58974;SDS011;44751;52.236;5.178;2023-08-24T04:44:21;12.13;;;8.00;;
58974;SDS011;44751;52.236;5.178;2023-08-24T04:46:49;10.20;;;7.38;;
58974;SDS011;44751;52.236;5.178;2023-08-24T04:49:15;10.55;;;7.30;;
58974;SDS011;44751;52.236;5.178;2023-08-24T04:51:42;11.48;;;7.80;;
58974;SDS011;44751;52.236;5.178;2023-08-24T04:54:08;10.80;;;8.32;;
58974;SDS011;44751;52.236;5.178;2023-08-24T04:56:35;11.82;;;8.50;;
58974;SDS011;44751;52.236;5.178;2023-08-24T04:59:08;12.32;;;7.80;;
58974;SDS011;44751;52.236;5.178;2023-08-24T05:01:35;11.85;;;8.48;;
58974;SDS011;44751;52.236;5.178;2023-08-24T05:04:02;14.38;;;8.90;;
58974;SDS011;44751;52.236;5.178;2023-08-24T05:10:12;11.15;;;7.93;;
58974;SDS011;44751;52.236;5.178;2023-08-24T18:48:21;4.90;;;4.18;;
58974;SDS011;44751;52.236;5.178;2023-08-24T18:50:47;7.05;;;4.47;;
58974;SDS011;44751;52.236;5.178;2023-08-24T18:53:14;8.40;;;4.07;;
58974;SDS011;44751;52.236;5.178;2023-08-24T18:55:40;8.90;;;4.75;;
58974;SDS011;44751;52.236;5.178;2023-08-24T18:58:07;6.63;;;4.35;;
58974;SDS011;44751;52.236;5.178;2023-08-24T19:00:36;6.85;;;4.38;;
58974;SDS011;44751;52.236;5.178;2023-08-24T19:03:04;7.43;;;4.65;;
58974;SDS011;44751;52.236;5.178;2023-08-24T19:05:30;6.68;;;4.47;;
58974;SDS011;44751;52.236;5.178;2023-08-24T19:07:57;7.18;;;4.47;;
58974;SDS011;44751;52.236;5.178;2023-08-24T19:10:24;6.25;;;4.43;;
58974;SDS011;44751;52.236;5.178;2023-08-24T19:12:50;7.00;;;4.53;;
58974;SDS011;44751;52.236;5.178;2023-08-24T19:15:17;7.18;;;5.20;;
58974;SDS011;44751;52.236;5.178;2023-08-24T19:17:43;6.82;;;4.10;;
58974;SDS011;44751;52.236;5.178;2023-08-24T19:20:09;6.28;;;4.50;;
58974;SDS011;44751;52.236;5.178;2023-08-24T19:22:36;7.93;;;4.45;;
58974;SDS011;44751;52.236;5.178;2023-08-24T19:25:03;6.90;;;4.85;;
58974;SDS011;44751;52.236;5.178;2023-08-24T19:27:31;6.07;;;4.70;;
58974;SDS011;44751;52.236;5.178;2023-08-24T19:29:57;6.57;;;4.18;;
58974;SDS011;44751;52.236;5.178;2023-08-24T19:32:24;8.48;;;4.78;;
58974;SDS011;44751;52.236;5.178;2023-08-24T19:34:50;7.30;;;4.72;;
58974;SDS011;44751;52.236;5.178;2023-08-24T19:37:17;11.88;;;5.20;;
58974;SDS011;44751;52.236;5.178;2023-08-24T19:39:43;8.02;;;5.30;;
58974;SDS011;44751;52.236;5.178;2023-08-24T19:42:09;7.43;;;4.78;;
58974;SDS011;44751;52.236;5.178;2023-08-24T19:44:36;6.30;;;4.72;;
58974;SDS011;44751;52.236;5.178;2023-08-24T19:47:03;6.43;;;5.38;;
58974;SDS011;44751;52.236;5.178;2023-08-24T19:49:30;6.90;;;5.30;;
58974;SDS011;44751;52.236;5.178;2023-08-24T19:51:56;7.60;;;5.00;;
58974;SDS011;44751;52.236;5.178;2023-08-24T19:54:22;7.78;;;5.03;;
58974;SDS011;44751;52.236;5.178;2023-08-24T19:56:49;7.07;;;5.38;;
58974;SDS011;44751;52.236;5.178;2023-08-24T19:59:16;6.55;;;5.60;;
58974;SDS011;44751;52.236;5.178;2023-08-24T20:01:42;6.75;;;5.15;;
58974;SDS011;44751;52.236;5.178;2023-08-24T20:04:08;6.68;;;5.20;;
58974;SDS011;44751;52.236;5.178;2023-08-24T20:06:35;5.85;;;5.25;;
58974;SDS011;44751;52.236;5.178;2023-08-24T20:09:02;6.70;;;5.60;;
58974;SDS011;44751;52.236;5.178;2023-08-24T20:11:31;7.82;;;5.60;;
58974;SDS011;44751;52.236;5.178;2023-08-24T20:13:57;7.82;;;5.28;;
58974;SDS011;44751;52.236;5.178;2023-08-24T20:16:25;9.15;;;5.18;;
58974;SDS011;44751;52.236;5.178;2023-08-24T20:18:51;7.82;;;5.40;;
58974;SDS011;44751;52.236;5.178;2023-08-24T20:21:18;8.63;;;5.85;;
58974;SDS011;44751;52.236;5.178;2023-08-24T20:23:44;7.93;;;5.78;;
58974;SDS011;44751;52.236;5.178;2023-08-24T20:26:11;7.68;;;5.53;;
58974;SDS011;44751;52.236;5.178;2023-08-24T20:28:38;7.07;;;5.47;;
58974;SDS011;44751;52.236;5.178;2023-08-24T20:31:06;9.20;;;5.72;;
58974;SDS011;44751;52.236;5.178;2023-08-24T20:33:33;10.95;;;6.38;;
58974;SDS011;44751;52.236;5.178;2023-08-24T20:36:00;9.35;;;6.78;;
58974;SDS011;44751;52.236;5.178;2023-08-24T20:38:27;10.23;;;7.03;;
58974;SDS011;44751;52.236;5.178;2023-08-24T20:40:54;8.13;;;6.80;;
58974;SDS011;44751;52.236;5.178;2023-08-24T20:43:21;11.27;;;7.75;;
58974;SDS011;44751;52.236;5.178;2023-08-24T20:45:48;9.95;;;7.45;;
58974;SDS011;44751;52.236;5.178;2023-08-24T20:48:14;12.18;;;8.05;;
58974;SDS011;44751;52.236;5.178;2023-08-24T20:50:42;11.13;;;7.07;;
58974;SDS011;44751;52.236;5.178;2023-08-24T20:53:08;9.23;;;7.50;;
58974;SDS011;44751;52.236;5.178;2023-08-24T20:55:35;11.02;;;7.95;;
58974;SDS011;44751;52.236;5.178;2023-08-24T20:58:03;9.48;;;7.57;;
58974;SDS011;44751;52.236;5.178;2023-08-24T21:00:29;8.25;;;6.78;;
58974;SDS011;44751;52.236;5.178;2023-08-24T21:02:56;10.10;;;7.90;;
58974;SDS011;44751;52.236;5.178;2023-08-24T21:05:26;10.85;;;7.82;;
58974;SDS011;44751;52.236;5.178;2023-08-24T21:07:53;11.15;;;8.13;;
58974;SDS011;44751;52.236;5.178;2023-08-24T21:10:19;10.68;;;8.27;;
58974;SDS011;44751;52.236;5.178;2023-08-24T21:12:46;17.00;;;10.65;;
58974;SDS011;44751;52.236;5.178;2023-08-24T21:15:12;11.32;;;8.90;;
58974;SDS011;44751;52.236;5.178;2023-08-24T21:17:39;11.20;;;8.63;;
58974;SDS011;44751;52.236;5.178;2023-08-24T21:20:05;11.50;;;8.90;;
58974;SDS011;44751;52.236;5.178;2023-08-24T21:22:33;12.88;;;9.50;;
58974;SDS011;44751;52.236;5.178;2023-08-24T21:25:00;9.55;;;8.55;;
58974;SDS011;44751;52.236;5.178;2023-08-24T21:27:27;10.73;;;8.70;;
58974;SDS011;44751;52.236;5.178;2023-08-24T21:29:56;12.02;;;9.25;;
58974;SDS011;44751;52.236;5.178;2023-08-24T21:32:23;12.75;;;10.15;;
58974;SDS011;44751;52.236;5.178;2023-08-24T21:34:50;10.27;;;8.50;;
58974;SDS011;44751;52.236;5.178;2023-08-24T21:37:17;12.48;;;9.73;;
58974;SDS011;44751;52.236;5.178;2023-08-24T21:39:43;16.65;;;11.75;;
58974;SDS011;44751;52.236;5.178;2023-08-24T21:42:10;12.82;;;10.05;;
58974;SDS011;44751;52.236;5.178;2023-08-24T21:44:40;10.90;;;9.20;;
58974;SDS011;44751;52.236;5.178;2023-08-24T21:47:11;11.98;;;9.90;;
58974;SDS011;44751;52.236;5.178;2023-08-24T21:49:37;13.27;;;10.15;;
58974;SDS011;44751;52.236;5.178;2023-08-24T21:52:04;10.20;;;9.20;;
58974;SDS011;44751;52.236;5.178;2023-08-24T21:54:32;9.45;;;8.52;;
58974;SDS011;44751;52.236;5.178;2023-08-24T21:57:00;11.10;;;8.73;;
58974;SDS011;44751;52.236;5.178;2023-08-24T21:59:29;11.52;;;8.98;;
58974;SDS011;44751;52.236;5.178;2023-08-24T22:01:56;10.65;;;8.73;;
58974;SDS011;44751;52.236;5.178;2023-08-24T22:04:23;10.85;;;9.68;;
58974;SDS011;44751;52.236;5.178;2023-08-24T22:06:52;14.25;;;10.70;;
58974;SDS011;44751;52.236;5.178;2023-08-24T22:09:21;14.80;;;10.07;;
58974;SDS011;44751;52.236;5.178;2023-08-24T22:11:48;12.65;;;10.75;;
58974;SDS011;44751;52.236;5.178;2023-08-24T22:14:15;12.20;;;10.30;;
58974;SDS011;44751;52.236;5.178;2023-08-24T22:16:42;13.68;;;10.93;;
58974;SDS011;44751;52.236;5.178;2023-08-24T22:19:11;14.45;;;10.93;;
58974;SDS011;44751;52.236;5.178;2023-08-24T22:21:39;16.65;;;12.43;;
58974;SDS011;44751;52.236;5.178;2023-08-24T22:24:06;15.25;;;12.45;;
58974;SDS011;44751;52.236;5.178;2023-08-24T22:26:32;13.82;;;12.32;;
58974;SDS011;44751;52.236;5.178;2023-08-24T22:28:59;14.15;;;12.15;;
58974;SDS011;44751;52.236;5.178;2023-08-24T22:31:43;18.67;;;13.75;;
58974;SDS011;44751;52.236;5.178;2023-08-24T22:34:10;12.93;;;11.32;;
58974;SDS011;44751;52.236;5.178;2023-08-24T22:36:36;16.77;;;14.00;;
58974;SDS011;44751;52.236;5.178;2023-08-24T22:39:04;14.82;;;13.20;;
58974;SDS011;44751;52.236;5.178;2023-08-24T22:41:38;15.88;;;14.18;;
58974;SDS011;44751;52.236;5.178;2023-08-24T22:44:04;17.75;;;13.27;;
58974;SDS011;44751;52.236;5.178;2023-08-24T22:46:31;16.02;;;14.00;;
58974;SDS011;44751;52.236;5.178;2023-08-24T22:48:58;19.05;;;14.90;;
58974;SDS011;44751;52.236;5.178;2023-08-24T22:51:30;16.23;;;13.70;;
58974;SDS011;44751;52.236;5.178;2023-08-24T22:53:58;16.88;;;15.07;;
58974;SDS011;44751;52.236;5.178;2023-08-24T22:56:28;16.42;;;13.65;;
58974;SDS011;44751;52.236;5.178;2023-08-24T22:58:54;18.40;;;15.68;;
58974;SDS011;44751;52.236;5.178;2023-08-24T23:01:21;16.73;;;13.57;;
58974;SDS011;44751;52.236;5.178;2023-08-24T23:03:48;16.80;;;14.82;;
58974;SDS011;44751;52.236;5.178;2023-08-24T23:06:17;19.98;;;16.38;;
58974;SDS011;44751;52.236;5.178;2023-08-24T23:08:45;18.83;;;14.77;;
58974;SDS011;44751;52.236;5.178;2023-08-24T23:11:13;17.13;;;14.93;;
58974;SDS011;44751;52.236;5.178;2023-08-24T23:13:42;18.58;;;15.48;;
58974;SDS011;44751;52.236;5.178;2023-08-24T23:16:08;18.40;;;16.23;;
58974;SDS011;44751;52.236;5.178;2023-08-24T23:18:35;16.33;;;14.25;;
58974;SDS011;44751;52.236;5.178;2023-08-24T23:21:02;20.92;;;16.75;;
58974;SDS011;44751;52.236;5.178;2023-08-24T23:23:29;18.02;;;15.55;;
58974;SDS011;44751;52.236;5.178;2023-08-24T23:25:55;20.05;;;16.20;;
58974;SDS011;44751;52.236;5.178;2023-08-24T23:28:24;18.63;;;15.02;;
58974;SDS011;44751;52.236;5.178;2023-08-24T23:30:51;17.83;;;15.48;;
58974;SDS011;44751;52.236;5.178;2023-08-24T23:33:17;20.75;;;17.02;;
58974;SDS011;44751;52.236;5.178;2023-08-24T23:35:44;21.05;;;17.35;;
58974;SDS011;44751;52.236;5.178;2023-08-24T23:38:11;21.00;;;17.33;;
58974;SDS011;44751;52.236;5.178;2023-08-24T23:40:37;20.38;;;17.23;;
58974;SDS011;44751;52.236;5.178;2023-08-24T23:43:12;20.73;;;17.13;;
58974;SDS011;44751;52.236;5.178;2023-08-24T23:45:39;20.85;;;17.20;;
58974;SDS011;44751;52.236;5.178;2023-08-24T23:48:06;20.63;;;17.77;;
58974;SDS011;44751;52.236;5.178;2023-08-24T23:50:35;20.58;;;17.85;;
58974;SDS011;44751;52.236;5.178;2023-08-24T23:53:01;22.67;;;18.85;;
58974;SDS011;44751;52.236;5.178;2023-08-24T23:55:30;23.13;;;19.20;;
58974;SDS011;44751;52.236;5.178;2023-08-24T23:57:57;20.25;;;18.08;;
